createdAt,value
2023-03-04T00:00:08.759Z,8.00
2023-03-04T00:02:36.705Z,7.93
2023-03-04T00:05:04.726Z,7.03
2023-03-04T00:07:33.913Z,6.70
2023-03-04T00:10:01.822Z,5.83
2023-03-04T00:12:29.687Z,6.23
2023-03-04T00:14:57.526Z,5.30
2023-03-04T00:17:25.432Z,6.20
2023-03-04T00:19:53.235Z,8.33
2023-03-04T00:22:21.097Z,8.30
2023-03-04T00:24:50.298Z,7.20
2023-03-04T00:27:18.216Z,6.90
2023-03-04T00:29:46.046Z,6.90
2023-03-04T00:32:14.008Z,12.87
2023-03-04T00:34:43.105Z,10.07
2023-03-04T00:37:10.930Z,9.10
2023-03-04T00:39:38.752Z,7.23
2023-03-04T00:42:07.965Z,7.70
2023-03-04T00:44:35.797Z,7.53
2023-03-04T00:47:03.726Z,12.13
2023-03-04T00:49:31.556Z,8.03
2023-03-04T00:51:59.417Z,9.90
2023-03-04T00:54:27.365Z,7.10
2023-03-04T00:56:55.237Z,7.00
2023-03-04T00:59:24.414Z,8.37
2023-03-04T01:01:52.256Z,9.70
2023-03-04T01:04:20.103Z,8.13
2023-03-04T01:06:47.944Z,8.47
2023-03-04T01:09:15.793Z,8.93
2023-03-04T01:11:43.859Z,8.10
2023-03-04T01:14:11.730Z,8.67
2023-03-04T01:16:40.918Z,6.53
2023-03-04T01:19:08.759Z,8.77
2023-03-04T01:21:36.676Z,8.13
2023-03-04T01:24:05.044Z,9.40
2023-03-04T01:26:32.989Z,7.13
2023-03-04T01:29:00.874Z,8.23
2023-03-04T01:31:28.685Z,7.53
2023-03-04T01:33:57.868Z,11.40
2023-03-04T01:36:25.760Z,9.40
2023-03-04T01:38:53.671Z,6.73
2023-03-04T01:41:26.870Z,7.87
2023-03-04T01:43:56.823Z,10.00
2023-03-04T01:46:25.275Z,8.80
2023-03-04T01:48:53.548Z,8.33
2023-03-04T01:51:23.334Z,8.80
2023-03-04T01:53:54.820Z,11.73
2023-03-04T01:56:26.370Z,10.83
2023-03-04T01:59:11.931Z,7.10
2023-03-04T02:01:41.402Z,8.23
2023-03-04T02:04:10.070Z,6.17
2023-03-04T02:06:41.784Z,8.53
2023-03-04T02:09:09.995Z,9.47
2023-03-04T02:11:39.375Z,9.30
2023-03-04T02:14:08.442Z,8.43
2023-03-04T02:16:36.321Z,8.13
2023-03-04T02:19:08.131Z,9.57
2023-03-04T02:21:36.242Z,7.17
2023-03-04T02:24:15.303Z,8.40
2023-03-04T02:26:46.871Z,11.30
2023-03-04T02:29:16.749Z,8.60
2023-03-04T02:31:46.114Z,10.30
2023-03-04T02:34:16.337Z,6.10
2023-03-04T02:36:46.180Z,9.10
2023-03-04T02:39:22.691Z,7.50
2023-03-04T02:41:53.569Z,10.63
2023-03-04T02:44:23.906Z,12.40
2023-03-04T02:46:52.829Z,7.10
2023-03-04T02:49:21.388Z,8.03
2023-03-04T02:51:53.380Z,7.07
2023-03-04T02:54:23.660Z,8.67
2023-03-04T02:56:54.196Z,7.20
2023-03-04T02:59:23.296Z,10.07
2023-03-04T03:01:51.794Z,11.93
2023-03-04T03:04:20.902Z,7.73
2023-03-04T03:06:48.807Z,9.47
2023-03-04T03:09:16.833Z,7.90
2023-03-04T03:11:44.806Z,8.67
2023-03-04T03:14:14.068Z,8.37
2023-03-04T03:16:42.035Z,7.90
2023-03-04T03:19:10.258Z,6.97
2023-03-04T03:21:38.121Z,9.47
2023-03-04T03:24:06.260Z,10.20
2023-03-04T03:26:34.114Z,8.57
2023-03-04T03:29:01.957Z,8.60
2023-03-04T03:31:31.335Z,10.43
2023-03-04T03:33:59.246Z,11.10
2023-03-04T03:36:27.129Z,8.80
2023-03-04T03:38:54.984Z,9.87
2023-03-04T03:41:22.903Z,9.20
2023-03-04T03:43:50.760Z,9.60
2023-03-04T03:46:18.622Z,8.70
2023-03-04T03:48:47.795Z,11.50
2023-03-04T03:51:15.669Z,10.80
2023-03-04T03:53:43.507Z,9.30
2023-03-04T03:56:11.391Z,8.37
2023-03-04T03:58:39.224Z,6.00
2023-03-04T04:01:07.041Z,7.93
2023-03-04T04:03:34.894Z,11.97
2023-03-04T04:06:04.333Z,11.63
2023-03-04T04:08:33.369Z,14.30
2023-03-04T04:11:01.233Z,8.20
2023-03-04T04:13:29.147Z,10.63
2023-03-04T04:15:57.154Z,13.13
2023-03-04T04:18:25.881Z,10.03
2023-03-04T04:20:54.339Z,9.93
2023-03-04T04:23:23.863Z,11.13
2023-03-04T04:25:51.710Z,11.50
2023-03-04T04:28:19.539Z,12.40
2023-03-04T04:30:47.496Z,11.23
2023-03-04T04:33:15.485Z,9.57
2023-03-04T04:35:43.448Z,10.57
2023-03-04T04:38:11.518Z,12.77
2023-03-04T04:40:40.796Z,9.00
2023-03-04T04:43:08.600Z,12.00
2023-03-04T04:45:36.771Z,15.00
2023-03-04T04:48:04.836Z,9.60
2023-03-04T04:50:33.176Z,10.00
2023-03-04T04:53:01.163Z,12.07
2023-03-04T04:55:29.236Z,11.47
2023-03-04T04:57:58.481Z,12.00
2023-03-04T05:00:26.513Z,12.43
2023-03-04T05:02:54.433Z,11.23
2023-03-04T05:05:22.425Z,9.87
2023-03-04T05:07:50.303Z,8.80
2023-03-04T05:10:18.318Z,13.27
2023-03-04T05:12:46.472Z,9.57
2023-03-04T05:15:15.752Z,8.83
2023-03-04T05:17:43.595Z,7.63
2023-03-04T05:20:12.506Z,9.80
2023-03-04T05:22:40.422Z,10.30
2023-03-04T05:25:08.812Z,12.83
2023-03-04T05:27:36.684Z,11.60
2023-03-04T05:30:05.151Z,9.87
2023-03-04T05:32:34.447Z,12.50
2023-03-04T05:35:02.320Z,12.20
2023-03-04T05:37:30.256Z,12.80
2023-03-04T05:39:58.128Z,9.97
2023-03-04T05:42:26.049Z,9.93
2023-03-04T05:44:53.962Z,14.20
2023-03-04T05:47:21.914Z,16.10
2023-03-04T05:49:51.095Z,12.60
2023-03-04T05:52:18.990Z,8.17
2023-03-04T05:54:46.865Z,8.33
2023-03-04T05:57:14.765Z,9.87
2023-03-04T05:59:42.635Z,15.30
2023-03-04T06:02:10.558Z,16.27
2023-03-04T06:04:38.422Z,11.70
2023-03-04T06:07:07.662Z,11.73
2023-03-04T06:09:35.532Z,19.27
2023-03-04T06:12:03.407Z,12.93
2023-03-04T06:14:31.265Z,9.73
2023-03-04T06:16:59.150Z,10.63
2023-03-04T06:19:27.131Z,10.47
2023-03-04T06:21:55.062Z,8.77
2023-03-04T06:24:24.334Z,16.10
2023-03-04T06:26:52.253Z,11.20
2023-03-04T06:29:20.188Z,14.77
2023-03-04T06:31:48.122Z,14.27
2023-03-04T06:34:16.029Z,17.70
2023-03-04T06:36:44.036Z,13.03
2023-03-04T06:39:12.415Z,9.90
2023-03-04T06:41:41.788Z,15.30
2023-03-04T06:44:09.680Z,13.53
2023-03-04T06:46:37.949Z,14.43
2023-03-04T06:49:05.924Z,15.17
2023-03-04T06:51:33.923Z,15.17
2023-03-04T06:54:01.940Z,12.87
2023-03-04T06:56:29.968Z,11.37
2023-03-04T06:58:59.223Z,13.60
2023-03-04T07:01:29.047Z,12.20
2023-03-04T07:03:57.894Z,11.90
2023-03-04T07:06:27.919Z,12.70
2023-03-04T07:08:56.241Z,11.57
2023-03-04T07:11:24.612Z,11.60
2023-03-04T07:13:52.776Z,15.00
2023-03-04T07:16:23.992Z,16.40
2023-03-04T07:18:52.246Z,15.40
2023-03-04T07:21:20.389Z,14.20
2023-03-04T07:23:48.780Z,17.00
2023-03-04T07:26:17.471Z,14.70
2023-03-04T07:28:45.364Z,19.47
2023-03-04T07:31:17.401Z,16.83
2023-03-04T07:33:46.815Z,15.77
2023-03-04T07:36:14.906Z,18.53
2023-03-04T07:38:45.245Z,19.30
2023-03-04T07:41:13.168Z,15.03
2023-03-04T07:43:41.067Z,19.60
2023-03-04T07:46:09.213Z,12.93
2023-03-04T07:48:37.468Z,17.60
2023-03-04T07:51:10.149Z,16.20
2023-03-04T07:53:40.061Z,13.57
2023-03-04T07:56:10.085Z,15.00
2023-03-04T07:58:38.127Z,14.10
2023-03-04T08:01:10.998Z,17.53
2023-03-04T08:03:39.404Z,16.70
2023-03-04T08:06:10.904Z,12.23
2023-03-04T08:08:39.002Z,14.37
2023-03-04T08:11:08.283Z,15.20
2023-03-04T08:13:36.714Z,19.30
2023-03-04T08:16:05.397Z,17.00
2023-03-04T08:18:33.360Z,12.60
2023-03-04T08:21:01.420Z,17.53
2023-03-04T08:23:30.686Z,18.17
2023-03-04T08:25:58.576Z,15.80
2023-03-04T08:28:26.575Z,19.50
2023-03-04T08:30:54.958Z,15.37
2023-03-04T08:33:22.866Z,14.63
2023-03-04T08:35:50.775Z,15.73
2023-03-04T08:38:18.670Z,17.93
2023-03-04T08:40:52.790Z,17.03
2023-03-04T08:43:20.735Z,20.00
2023-03-04T08:45:48.713Z,20.73
2023-03-04T08:48:19.696Z,16.80
2023-03-04T08:50:47.813Z,17.80
2023-03-04T08:53:16.614Z,20.20
2023-03-04T08:55:45.416Z,17.40
2023-03-04T08:58:14.889Z,17.27
2023-03-04T09:00:48.268Z,17.97
2023-03-04T09:03:19.451Z,19.90
2023-03-04T09:05:48.379Z,15.17
2023-03-04T09:08:17.408Z,12.90
2023-03-04T09:10:46.331Z,12.83
2023-03-04T09:13:16.226Z,16.40
2023-03-04T09:15:46.365Z,15.60
2023-03-04T09:18:15.462Z,23.03
2023-03-04T09:20:43.357Z,15.40
2023-03-04T09:23:11.373Z,12.67
2023-03-04T09:25:39.912Z,20.87
2023-03-04T09:28:08.383Z,16.37
2023-03-04T09:30:37.686Z,20.13
2023-03-04T09:33:05.629Z,21.93
2023-03-04T09:35:33.546Z,22.40
2023-03-04T09:38:01.679Z,18.47
2023-03-04T09:40:33.679Z,14.23
2023-03-04T09:43:04.347Z,23.87
2023-03-04T09:45:42.281Z,10.73
2023-03-04T09:48:14.771Z,14.60
2023-03-04T09:50:49.924Z,15.20
2023-03-04T09:53:24.331Z,18.20
2023-03-04T09:55:53.777Z,18.23
2023-03-04T09:58:34.611Z,17.27
2023-03-04T10:01:11.660Z,20.10
2023-03-04T10:03:48.390Z,9.67
2023-03-04T10:06:19.509Z,13.40
2023-03-04T10:08:54.724Z,14.60
2023-03-04T10:11:27.188Z,8.70
2023-03-04T10:14:01.696Z,11.53
2023-03-04T10:16:39.084Z,15.03
2023-03-04T10:19:22.390Z,11.87
2023-03-04T10:21:52.404Z,13.23
2023-03-04T10:24:25.103Z,15.23
2023-03-04T10:26:55.842Z,11.00
2023-03-04T10:29:25.809Z,9.57
2023-03-04T10:31:56.142Z,13.30
2023-03-04T10:34:24.407Z,12.50
2023-03-04T10:36:59.150Z,12.67
2023-03-04T10:39:30.168Z,15.10
2023-03-04T10:42:01.937Z,13.33
2023-03-04T10:44:30.717Z,9.60
2023-03-04T10:47:00.316Z,7.30
2023-03-04T10:49:29.829Z,12.17
2023-03-04T10:52:04.032Z,8.47
2023-03-04T10:54:37.442Z,11.53
2023-03-04T10:57:06.572Z,16.80
2023-03-04T10:59:40.950Z,6.13
2023-03-04T11:02:21.811Z,10.47
2023-03-04T11:04:55.500Z,10.13
2023-03-04T11:07:25.501Z,4.93
2023-03-04T11:09:54.346Z,7.30
2023-03-04T11:12:33.832Z,11.40
2023-03-04T11:15:02.459Z,8.13
2023-03-04T11:17:44.830Z,14.63
2023-03-04T11:20:18.300Z,13.77
2023-03-04T11:22:47.554Z,14.87
2023-03-04T11:25:25.574Z,11.70
2023-03-04T11:27:56.096Z,13.37
2023-03-04T11:30:39.254Z,14.57
2023-03-04T11:33:16.911Z,13.43
2023-03-04T11:35:53.296Z,10.83
2023-03-04T11:38:25.303Z,12.37
2023-03-04T11:40:58.688Z,6.00
2023-03-04T11:43:31.241Z,7.80
2023-03-04T11:46:21.559Z,16.03
2023-03-04T11:49:02.018Z,11.70
2023-03-04T11:51:37.760Z,10.70
2023-03-04T11:54:19.798Z,12.80
2023-03-04T11:56:51.473Z,11.93
2023-03-04T11:59:46.777Z,5.40
2023-03-04T12:02:21.454Z,5.10
2023-03-04T12:05:15.295Z,10.47
2023-03-04T12:08:00.397Z,10.20
2023-03-04T12:10:36.797Z,3.93
2023-03-04T12:13:26.065Z,11.13
2023-03-04T12:16:05.434Z,5.83
2023-03-04T12:18:46.023Z,5.20
2023-03-04T12:21:26.809Z,6.17
2023-03-04T12:24:19.240Z,8.80
2023-03-04T12:26:52.338Z,5.20
2023-03-04T12:29:30.712Z,12.20
2023-03-04T12:32:04.828Z,9.50
2023-03-04T12:34:47.913Z,3.87
2023-03-04T12:37:34.515Z,5.03
2023-03-04T12:40:31.358Z,4.30
2023-03-04T12:43:12.507Z,4.53
2023-03-04T12:45:47.930Z,6.00
2023-03-04T12:48:27.962Z,12.00
2023-03-04T12:51:08.659Z,11.87
2023-03-04T12:53:44.053Z,4.43
2023-03-04T12:56:24.491Z,3.70
2023-03-04T12:58:53.168Z,3.53
2023-03-04T13:01:26.950Z,3.80
2023-03-04T13:04:03.458Z,4.50
2023-03-04T13:06:40.752Z,2.60
2023-03-04T13:09:20.207Z,3.40
2023-03-04T13:12:03.180Z,4.60
2023-03-04T13:14:33.338Z,4.43
2023-03-04T13:17:03.531Z,3.70
2023-03-04T13:19:52.729Z,3.60
2023-03-04T13:22:33.937Z,4.17
2023-03-04T13:25:34.925Z,6.20
2023-03-04T13:28:25.293Z,11.40
2023-03-04T13:31:15.187Z,9.97
2023-03-04T13:34:02.203Z,8.53
2023-03-04T13:36:55.824Z,5.10
2023-03-04T13:39:28.048Z,6.43
2023-03-04T13:41:57.780Z,6.53
2023-03-04T13:45:02.073Z,12.53
2023-03-04T13:47:49.341Z,6.00
2023-03-04T13:50:25.263Z,5.50
2023-03-04T13:52:53.796Z,14.37
2023-03-04T13:55:36.961Z,5.40
2023-03-04T13:58:18.159Z,5.90
2023-03-04T14:00:51.709Z,7.37
2023-03-04T14:03:24.553Z,5.03
2023-03-04T14:06:11.833Z,6.43
2023-03-04T14:08:39.774Z,5.50
2023-03-04T14:11:14.170Z,8.60
2023-03-04T14:13:44.210Z,10.30
2023-03-04T14:16:12.378Z,9.90
2023-03-04T14:18:41.283Z,6.30
2023-03-04T14:21:14.791Z,7.00
2023-03-04T14:23:42.660Z,8.73
2023-03-04T14:26:13.939Z,7.10
2023-03-04T14:28:48.261Z,7.60
2023-03-04T14:31:20.397Z,9.73
2023-03-04T14:33:50.559Z,6.47
2023-03-04T14:36:21.767Z,7.93
2023-03-04T14:38:55.417Z,12.23
2023-03-04T14:41:28.573Z,11.10
2023-03-04T14:44:04.240Z,11.27
2023-03-04T14:46:36.576Z,11.33
2023-03-04T14:49:04.781Z,21.53
2023-03-04T14:51:43.003Z,14.00
2023-03-04T14:54:32.433Z,11.47
2023-03-04T14:57:02.507Z,13.03
2023-03-04T14:59:33.394Z,12.30
2023-03-04T15:02:31.379Z,18.77
2023-03-04T15:05:02.202Z,17.53
2023-03-04T15:07:34.493Z,8.57
2023-03-04T15:10:04.546Z,8.13
2023-03-04T15:12:35.201Z,10.47
2023-03-04T15:15:06.820Z,7.20
2023-03-04T15:17:38.688Z,10.67
2023-03-04T15:20:23.899Z,14.13
2023-03-04T15:23:00.102Z,7.00
2023-03-04T15:25:29.046Z,13.30
2023-03-04T15:27:57.695Z,10.40
2023-03-04T15:30:29.075Z,12.67
2023-03-04T15:32:58.294Z,15.60
2023-03-04T15:35:29.283Z,9.30
2023-03-04T15:37:57.851Z,9.70
2023-03-04T15:40:29.547Z,11.37
2023-03-04T15:42:58.837Z,9.13
2023-03-04T15:45:30.901Z,11.87
2023-03-04T15:47:59.000Z,11.20
2023-03-04T15:50:30.149Z,19.30
2023-03-04T15:53:02.164Z,9.33
2023-03-04T15:55:31.552Z,18.90
2023-03-04T15:58:01.152Z,12.10
2023-03-04T16:00:32.043Z,11.63
2023-03-04T16:02:59.948Z,11.50
2023-03-04T16:05:27.918Z,10.27
2023-03-04T16:07:55.822Z,12.43
2023-03-04T16:10:27.520Z,23.97
2023-03-04T16:12:55.786Z,10.00
2023-03-04T16:15:25.786Z,9.43
2023-03-04T16:17:55.684Z,8.80
2023-03-04T16:20:25.586Z,5.60
2023-03-04T16:22:57.159Z,14.30
2023-03-04T16:25:26.101Z,13.97
2023-03-04T16:27:56.426Z,12.20
2023-03-04T16:30:26.411Z,5.53
2023-03-04T16:32:55.955Z,7.27
2023-03-04T16:35:25.337Z,7.90
2023-03-04T16:37:53.592Z,4.10
2023-03-04T16:40:24.824Z,10.43
2023-03-04T16:42:52.805Z,9.07
2023-03-04T16:45:22.783Z,6.10
2023-03-04T16:47:51.061Z,6.20
2023-03-04T16:50:24.897Z,9.03
2023-03-04T16:52:52.885Z,5.93
2023-03-04T16:55:23.017Z,4.90
2023-03-04T16:57:51.187Z,5.23
2023-03-04T17:00:21.107Z,7.97
2023-03-04T17:02:57.474Z,5.70
2023-03-04T17:05:28.541Z,7.60
2023-03-04T17:07:56.480Z,3.20
2023-03-04T17:10:25.117Z,4.53
2023-03-04T17:12:53.324Z,7.07
2023-03-04T17:15:21.568Z,7.03
2023-03-04T17:17:49.659Z,8.27
2023-03-04T17:20:19.222Z,5.27
2023-03-04T17:22:48.592Z,5.47
2023-03-04T17:25:17.270Z,6.47
2023-03-04T17:27:45.318Z,9.00
2023-03-04T17:30:14.904Z,6.80
2023-03-04T17:32:43.005Z,4.60
2023-03-04T17:35:11.966Z,4.30
2023-03-04T17:37:40.599Z,9.57
2023-03-04T17:40:14.161Z,9.60
2023-03-04T17:42:42.566Z,4.40
2023-03-04T17:45:12.070Z,6.90
2023-03-04T17:47:40.266Z,8.90
2023-03-04T17:50:09.484Z,11.60
2023-03-04T17:52:37.424Z,7.43
2023-03-04T17:55:05.936Z,13.63
2023-03-04T17:57:38.337Z,7.13
2023-03-04T18:00:07.768Z,10.33
2023-03-04T18:02:35.655Z,6.83
2023-03-04T18:05:06.709Z,8.50
2023-03-04T18:07:34.841Z,7.40
2023-03-04T18:10:02.751Z,9.37
2023-03-04T18:12:30.758Z,9.83
2023-03-04T18:15:00.517Z,7.83
2023-03-04T18:17:28.398Z,9.50
2023-03-04T18:19:56.688Z,6.97
2023-03-04T18:22:24.684Z,11.87
2023-03-04T18:24:52.629Z,17.93
2023-03-04T18:27:20.576Z,6.43
2023-03-04T18:29:48.568Z,12.27
2023-03-04T18:32:17.798Z,13.50
2023-03-04T18:34:45.673Z,13.00
2023-03-04T18:37:13.582Z,12.40
2023-03-04T18:39:42.018Z,10.93
2023-03-04T18:42:09.893Z,12.70
2023-03-04T18:44:37.797Z,15.00
2023-03-04T18:47:06.898Z,11.73
2023-03-04T18:49:36.158Z,9.57
2023-03-04T18:52:04.125Z,16.17
2023-03-04T18:54:31.971Z,18.87
2023-03-04T18:57:03.365Z,15.67
2023-03-04T18:59:36.961Z,11.63
2023-03-04T19:02:10.952Z,13.03
2023-03-04T19:04:40.500Z,17.30
2023-03-04T19:07:08.387Z,13.57
2023-03-04T19:09:36.250Z,10.47
2023-03-04T19:12:06.480Z,11.03
2023-03-04T19:14:34.425Z,11.73
2023-03-04T19:17:02.372Z,11.77
2023-03-04T19:19:30.240Z,21.60
2023-03-04T19:21:59.513Z,12.30
2023-03-04T19:24:27.395Z,18.47
2023-03-04T19:26:55.335Z,17.13
2023-03-04T19:29:23.224Z,13.20
2023-03-04T19:31:51.173Z,15.90
2023-03-04T19:34:19.137Z,13.63
2023-03-04T19:36:47.020Z,11.03
2023-03-04T19:39:18.452Z,11.43
2023-03-04T19:41:46.377Z,11.23
2023-03-04T19:44:14.250Z,11.80
2023-03-04T19:46:42.169Z,13.20
2023-03-04T19:49:10.313Z,9.47
2023-03-04T19:51:38.300Z,14.20
2023-03-04T19:54:06.228Z,14.40
2023-03-04T19:56:35.472Z,12.23
2023-03-04T19:59:03.725Z,9.10
2023-03-04T20:01:33.986Z,12.27
2023-03-04T20:04:03.845Z,8.87
2023-03-04T20:06:32.370Z,8.80
2023-03-04T20:09:01.548Z,13.07
2023-03-04T20:11:31.013Z,10.50
2023-03-04T20:14:01.738Z,12.47
2023-03-04T20:16:30.125Z,17.57
2023-03-04T20:18:58.856Z,10.30
2023-03-04T20:21:27.504Z,14.40
2023-03-04T20:23:55.410Z,13.90
2023-03-04T20:26:23.671Z,17.13
2023-03-04T20:28:51.662Z,16.43
2023-03-04T20:31:23.685Z,17.33
2023-03-04T20:33:53.132Z,15.67
2023-03-04T20:36:23.417Z,15.47
2023-03-04T20:39:00.649Z,11.10
2023-03-04T20:41:30.134Z,9.70
2023-03-04T20:43:58.077Z,12.23
2023-03-04T20:46:29.660Z,9.77
2023-03-04T20:48:59.493Z,11.63
2023-03-04T20:51:27.609Z,9.57
2023-03-04T20:53:56.526Z,10.80
2023-03-04T20:56:24.624Z,9.80
2023-03-04T20:58:53.444Z,8.40
2023-03-04T21:01:22.076Z,9.57
2023-03-04T21:03:52.029Z,8.30
2023-03-04T21:06:20.213Z,9.33
2023-03-04T21:08:48.066Z,8.70
2023-03-04T21:11:18.072Z,6.03
2023-03-04T21:13:46.388Z,8.40
2023-03-04T21:16:15.163Z,10.67
2023-03-04T21:18:44.527Z,8.83
2023-03-04T21:21:15.795Z,8.20
2023-03-04T21:23:43.686Z,10.07
2023-03-04T21:26:11.571Z,6.97
2023-03-04T21:28:39.438Z,8.63
2023-03-04T21:31:11.402Z,4.70
2023-03-04T21:33:39.330Z,5.40
2023-03-04T21:36:07.822Z,9.43
2023-03-04T21:38:38.601Z,7.30
2023-03-04T21:41:07.354Z,5.90
2023-03-04T21:43:35.175Z,4.27
2023-03-04T21:46:03.029Z,4.67
2023-03-04T21:48:30.864Z,4.30
2023-03-04T21:51:02.597Z,4.30
2023-03-04T21:53:30.431Z,4.90
2023-03-04T21:55:59.724Z,8.63
2023-03-04T21:58:27.951Z,7.57
2023-03-04T22:00:57.012Z,5.83
2023-03-04T22:03:25.325Z,5.93
2023-03-04T22:05:53.201Z,4.27
2023-03-04T22:08:21.829Z,3.60
2023-03-04T22:10:49.660Z,3.90
2023-03-04T22:13:18.840Z,3.97
2023-03-04T22:15:47.828Z,3.50
2023-03-04T22:18:15.920Z,4.00
2023-03-04T22:20:45.215Z,4.00
2023-03-04T22:23:13.737Z,3.90
2023-03-04T22:25:42.567Z,5.10
2023-03-04T22:28:10.521Z,4.83
2023-03-04T22:30:39.940Z,8.63
2023-03-04T22:33:07.860Z,4.60
2023-03-04T22:35:39.732Z,5.03
2023-03-04T22:38:07.625Z,7.60
2023-03-04T22:40:35.449Z,4.43
2023-03-04T22:43:03.335Z,8.80
2023-03-04T22:45:32.925Z,6.87
2023-03-04T22:48:02.625Z,7.80
2023-03-04T22:50:30.562Z,13.53
2023-03-04T22:52:58.515Z,14.17
2023-03-04T22:55:26.334Z,21.57
2023-03-04T22:57:54.368Z,8.83
2023-03-04T23:00:24.271Z,5.97
2023-03-04T23:02:52.523Z,3.97
2023-03-04T23:05:22.162Z,6.50
2023-03-04T23:07:51.346Z,3.50
2023-03-04T23:10:22.463Z,4.27
2023-03-04T23:12:50.461Z,5.70
2023-03-04T23:15:19.770Z,4.17
2023-03-04T23:17:47.728Z,4.70
2023-03-04T23:20:18.700Z,4.87
2023-03-04T23:22:48.840Z,6.87
2023-03-04T23:25:17.737Z,3.97
2023-03-04T23:27:46.430Z,7.73
2023-03-04T23:30:17.003Z,5.90
2023-03-04T23:32:45.643Z,6.10
2023-03-04T23:35:13.500Z,3.73
2023-03-04T23:37:44.161Z,7.67
2023-03-04T23:40:14.389Z,8.50
2023-03-04T23:42:42.308Z,6.40
2023-03-04T23:45:11.225Z,3.13
2023-03-04T23:47:39.097Z,2.60
2023-03-04T23:50:08.846Z,5.23
2023-03-04T23:52:36.776Z,4.90
2023-03-04T23:55:05.285Z,2.27
2023-03-04T23:57:34.458Z,2.53
